sensor_id;sensor_type;location;lat;lon;timestamp;P1;durP1;ratioP1;P2;durP2;ratioP2
61015;SDS011;46902;52.920;6.536;2023-04-19T00:01:21;11.48;;;6.90;;
61015;SDS011;46902;52.920;6.536;2023-04-19T00:03:48;7.53;;;6.10;;
61015;SDS011;46902;52.920;6.536;2023-04-19T00:06:14;10.93;;;6.40;;
61015;SDS011;46902;52.920;6.536;2023-04-19T00:08:40;9.13;;;6.60;;
61015;SDS011;46902;52.920;6.536;2023-04-19T00:11:07;8.27;;;6.35;;
61015;SDS011;46902;52.920;6.536;2023-04-19T00:13:33;11.93;;;6.20;;
61015;SDS011;46902;52.920;6.536;2023-04-19T00:15:59;10.82;;;6.75;;
61015;SDS011;46902;52.920;6.536;2023-04-19T00:18:25;10.45;;;6.50;;
61015;SDS011;46902;52.920;6.536;2023-04-19T00:20:50;12.27;;;6.43;;
61015;SDS011;46902;52.920;6.536;2023-04-19T00:23:16;10.30;;;6.93;;
61015;SDS011;46902;52.920;6.536;2023-04-19T00:25:42;8.77;;;5.85;;
61015;SDS011;46902;52.920;6.536;2023-04-19T00:28:10;8.10;;;6.35;;
61015;SDS011;46902;52.920;6.536;2023-04-19T00:30:35;10.85;;;6.22;;
61015;SDS011;46902;52.920;6.536;2023-04-19T00:33:01;8.15;;;6.32;;
61015;SDS011;46902;52.920;6.536;2023-04-19T00:35:27;8.93;;;6.47;;
61015;SDS011;46902;52.920;6.536;2023-04-19T00:37:52;10.30;;;5.82;;
61015;SDS011;46902;52.920;6.536;2023-04-19T00:40:18;8.43;;;6.10;;
61015;SDS011;46902;52.920;6.536;2023-04-19T00:42:44;8.65;;;5.80;;
61015;SDS011;46902;52.920;6.536;2023-04-19T00:45:10;9.63;;;5.80;;
61015;SDS011;46902;52.920;6.536;2023-04-19T00:47:36;8.48;;;6.40;;
61015;SDS011;46902;52.920;6.536;2023-04-19T00:50:02;10.90;;;6.82;;
61015;SDS011;46902;52.920;6.536;2023-04-19T00:52:28;7.97;;;5.68;;
61015;SDS011;46902;52.920;6.536;2023-04-19T00:54:54;7.75;;;5.93;;
61015;SDS011;46902;52.920;6.536;2023-04-19T00:57:22;9.20;;;6.55;;
61015;SDS011;46902;52.920;6.536;2023-04-19T00:59:48;9.20;;;6.10;;
61015;SDS011;46902;52.920;6.536;2023-04-19T01:02:15;10.07;;;6.10;;
61015;SDS011;46902;52.920;6.536;2023-04-19T01:04:41;9.48;;;6.20;;
61015;SDS011;46902;52.920;6.536;2023-04-19T01:07:07;7.88;;;6.35;;
61015;SDS011;46902;52.920;6.536;2023-04-19T01:09:33;11.23;;;7.07;;
61015;SDS011;46902;52.920;6.536;2023-04-19T01:11:59;10.52;;;7.60;;
61015;SDS011;46902;52.920;6.536;2023-04-19T01:14:26;10.55;;;7.22;;
61015;SDS011;46902;52.920;6.536;2023-04-19T01:16:51;11.40;;;7.97;;
61015;SDS011;46902;52.920;6.536;2023-04-19T01:19:18;9.27;;;6.70;;
61015;SDS011;46902;52.920;6.536;2023-04-19T01:21:44;10.60;;;7.45;;
61015;SDS011;46902;52.920;6.536;2023-04-19T01:24:10;10.38;;;6.90;;
61015;SDS011;46902;52.920;6.536;2023-04-19T01:26:36;8.73;;;6.32;;
61015;SDS011;46902;52.920;6.536;2023-04-19T01:29:01;12.02;;;6.75;;
61015;SDS011;46902;52.920;6.536;2023-04-19T01:31:27;11.70;;;7.30;;
61015;SDS011;46902;52.920;6.536;2023-04-19T01:33:53;8.20;;;6.13;;
61015;SDS011;46902;52.920;6.536;2023-04-19T01:36:18;10.00;;;6.20;;
61015;SDS011;46902;52.920;6.536;2023-04-19T01:38:44;9.13;;;5.63;;
61015;SDS011;46902;52.920;6.536;2023-04-19T01:41:11;9.95;;;6.00;;
61015;SDS011;46902;52.920;6.536;2023-04-19T01:43:37;9.80;;;6.35;;
61015;SDS011;46902;52.920;6.536;2023-04-19T01:46:03;10.75;;;6.75;;
61015;SDS011;46902;52.920;6.536;2023-04-19T01:48:29;9.68;;;6.50;;
61015;SDS011;46902;52.920;6.536;2023-04-19T01:50:54;11.85;;;6.82;;
61015;SDS011;46902;52.920;6.536;2023-04-19T01:53:20;9.68;;;6.85;;
61015;SDS011;46902;52.920;6.536;2023-04-19T01:55:46;8.90;;;6.40;;
61015;SDS011;46902;52.920;6.536;2023-04-19T01:58:11;9.30;;;6.57;;
61015;SDS011;46902;52.920;6.536;2023-04-19T02:00:40;10.52;;;6.90;;
61015;SDS011;46902;52.920;6.536;2023-04-19T02:03:05;15.13;;;6.93;;
61015;SDS011;46902;52.920;6.536;2023-04-19T02:05:31;11.95;;;7.07;;
61015;SDS011;46902;52.920;6.536;2023-04-19T02:07:56;10.02;;;7.03;;
61015;SDS011;46902;52.920;6.536;2023-04-19T02:10:22;9.82;;;7.25;;
61015;SDS011;46902;52.920;6.536;2023-04-19T02:12:48;8.68;;;6.70;;
61015;SDS011;46902;52.920;6.536;2023-04-19T02:15:13;9.10;;;6.95;;
61015;SDS011;46902;52.920;6.536;2023-04-19T02:17:39;9.38;;;7.47;;
61015;SDS011;46902;52.920;6.536;2023-04-19T02:20:05;10.63;;;8.02;;
61015;SDS011;46902;52.920;6.536;2023-04-19T02:22:32;12.38;;;8.15;;
61015;SDS011;46902;52.920;6.536;2023-04-19T02:24:58;12.43;;;8.77;;
61015;SDS011;46902;52.920;6.536;2023-04-19T02:27:24;12.30;;;8.80;;
61015;SDS011;46902;52.920;6.536;2023-04-19T02:29:50;11.23;;;8.27;;
61015;SDS011;46902;52.920;6.536;2023-04-19T02:32:16;14.20;;;8.85;;
61015;SDS011;46902;52.920;6.536;2023-04-19T02:34:41;13.63;;;8.82;;
61015;SDS011;46902;52.920;6.536;2023-04-19T02:37:07;14.25;;;8.60;;
61015;SDS011;46902;52.920;6.536;2023-04-19T02:39:32;15.13;;;9.00;;
61015;SDS011;46902;52.920;6.536;2023-04-19T02:41:58;14.05;;;9.40;;
61015;SDS011;46902;52.920;6.536;2023-04-19T02:44:25;12.32;;;9.27;;
61015;SDS011;46902;52.920;6.536;2023-04-19T02:46:51;11.52;;;8.70;;
61015;SDS011;46902;52.920;6.536;2023-04-19T02:49:17;12.75;;;8.48;;
61015;SDS011;46902;52.920;6.536;2023-04-19T02:51:44;14.85;;;9.75;;
61015;SDS011;46902;52.920;6.536;2023-04-19T02:54:10;11.85;;;8.98;;
61015;SDS011;46902;52.920;6.536;2023-04-19T02:56:36;14.88;;;9.73;;
61015;SDS011;46902;52.920;6.536;2023-04-19T02:59:02;12.95;;;8.70;;
61015;SDS011;46902;52.920;6.536;2023-04-19T03:01:29;12.65;;;8.52;;
61015;SDS011;46902;52.920;6.536;2023-04-19T03:03:55;13.00;;;8.77;;
61015;SDS011;46902;52.920;6.536;2023-04-19T03:06:20;12.95;;;8.55;;
61015;SDS011;46902;52.920;6.536;2023-04-19T03:08:46;13.38;;;9.27;;
61015;SDS011;46902;52.920;6.536;2023-04-19T03:11:13;15.27;;;9.10;;
61015;SDS011;46902;52.920;6.536;2023-04-19T03:13:41;12.35;;;8.60;;
61015;SDS011;46902;52.920;6.536;2023-04-19T03:16:07;10.85;;;8.65;;
61015;SDS011;46902;52.920;6.536;2023-04-19T03:18:33;12.57;;;9.00;;
61015;SDS011;46902;52.920;6.536;2023-04-19T03:20:59;14.55;;;8.50;;
61015;SDS011;46902;52.920;6.536;2023-04-19T03:23:24;11.48;;;8.65;;
61015;SDS011;46902;52.920;6.536;2023-04-19T03:25:51;11.15;;;8.02;;
61015;SDS011;46902;52.920;6.536;2023-04-19T03:28:16;12.65;;;8.40;;
61015;SDS011;46902;52.920;6.536;2023-04-19T03:30:42;11.05;;;8.38;;
61015;SDS011;46902;52.920;6.536;2023-04-19T03:33:07;14.23;;;8.25;;
61015;SDS011;46902;52.920;6.536;2023-04-19T03:35:33;12.00;;;8.20;;
61015;SDS011;46902;52.920;6.536;2023-04-19T03:37:58;12.85;;;7.97;;
61015;SDS011;46902;52.920;6.536;2023-04-19T03:40:24;11.15;;;7.78;;
61015;SDS011;46902;52.920;6.536;2023-04-19T03:42:50;14.05;;;7.63;;
61015;SDS011;46902;52.920;6.536;2023-04-19T03:45:15;10.90;;;8.00;;
61015;SDS011;46902;52.920;6.536;2023-04-19T03:47:41;12.65;;;7.50;;
61015;SDS011;46902;52.920;6.536;2023-04-19T03:50:06;12.50;;;7.43;;
61015;SDS011;46902;52.920;6.536;2023-04-19T03:52:32;11.73;;;7.90;;
61015;SDS011;46902;52.920;6.536;2023-04-19T03:54:58;10.10;;;7.18;;
61015;SDS011;46902;52.920;6.536;2023-04-19T03:57:23;9.50;;;6.78;;
61015;SDS011;46902;52.920;6.536;2023-04-19T03:59:49;12.25;;;6.80;;
61015;SDS011;46902;52.920;6.536;2023-04-19T04:02:15;12.60;;;7.70;;
61015;SDS011;46902;52.920;6.536;2023-04-19T04:04:40;10.95;;;7.13;;
61015;SDS011;46902;52.920;6.536;2023-04-19T04:07:06;9.93;;;6.30;;
61015;SDS011;46902;52.920;6.536;2023-04-19T04:09:31;10.05;;;7.30;;
61015;SDS011;46902;52.920;6.536;2023-04-19T04:11:57;8.85;;;6.93;;
61015;SDS011;46902;52.920;6.536;2023-04-19T04:14:23;11.95;;;6.80;;
61015;SDS011;46902;52.920;6.536;2023-04-19T04:16:49;10.63;;;6.28;;
61015;SDS011;46902;52.920;6.536;2023-04-19T04:19:14;11.05;;;6.60;;
61015;SDS011;46902;52.920;6.536;2023-04-19T04:21:40;10.20;;;6.43;;
61015;SDS011;46902;52.920;6.536;2023-04-19T04:24:06;8.80;;;6.38;;
61015;SDS011;46902;52.920;6.536;2023-04-19T04:26:32;10.82;;;6.60;;
61015;SDS011;46902;52.920;6.536;2023-04-19T04:29:03;12.02;;;6.90;;
61015;SDS011;46902;52.920;6.536;2023-04-19T04:31:30;11.60;;;6.43;;
61015;SDS011;46902;52.920;6.536;2023-04-19T04:33:56;12.15;;;6.90;;
61015;SDS011;46902;52.920;6.536;2023-04-19T04:36:21;9.13;;;6.60;;
61015;SDS011;46902;52.920;6.536;2023-04-19T04:38:47;9.57;;;6.65;;
61015;SDS011;46902;52.920;6.536;2023-04-19T04:41:13;9.93;;;6.00;;
61015;SDS011;46902;52.920;6.536;2023-04-19T04:43:38;8.93;;;6.13;;
61015;SDS011;46902;52.920;6.536;2023-04-19T04:46:04;11.80;;;6.57;;
61015;SDS011;46902;52.920;6.536;2023-04-19T04:48:30;9.68;;;6.75;;
61015;SDS011;46902;52.920;6.536;2023-04-19T04:50:56;8.98;;;6.68;;
61015;SDS011;46902;52.920;6.536;2023-04-19T04:53:24;10.50;;;6.85;;
61015;SDS011;46902;52.920;6.536;2023-04-19T04:55:51;11.07;;;6.43;;
61015;SDS011;46902;52.920;6.536;2023-04-19T04:58:18;12.35;;;6.88;;
61015;SDS011;46902;52.920;6.536;2023-04-19T05:00:43;10.73;;;6.80;;
61015;SDS011;46902;52.920;6.536;2023-04-19T05:03:09;9.45;;;7.07;;
61015;SDS011;46902;52.920;6.536;2023-04-19T05:05:35;9.10;;;6.30;;
61015;SDS011;46902;52.920;6.536;2023-04-19T05:08:00;9.70;;;6.03;;
61015;SDS011;46902;52.920;6.536;2023-04-19T05:10:26;8.60;;;6.55;;
61015;SDS011;46902;52.920;6.536;2023-04-19T05:12:52;9.20;;;6.03;;
61015;SDS011;46902;52.920;6.536;2023-04-19T05:15:17;9.10;;;5.80;;
61015;SDS011;46902;52.920;6.536;2023-04-19T05:17:43;9.45;;;5.80;;
61015;SDS011;46902;52.920;6.536;2023-04-19T05:20:09;9.10;;;5.65;;
61015;SDS011;46902;52.920;6.536;2023-04-19T05:22:34;8.10;;;5.20;;
61015;SDS011;46902;52.920;6.536;2023-04-19T05:25:00;9.40;;;5.20;;
61015;SDS011;46902;52.920;6.536;2023-04-19T05:27:26;7.85;;;5.57;;
61015;SDS011;46902;52.920;6.536;2023-04-19T05:29:51;6.95;;;5.00;;
61015;SDS011;46902;52.920;6.536;2023-04-19T05:32:17;7.90;;;5.53;;
61015;SDS011;46902;52.920;6.536;2023-04-19T05:34:43;9.73;;;5.60;;
61015;SDS011;46902;52.920;6.536;2023-04-19T05:37:09;8.60;;;5.32;;
61015;SDS011;46902;52.920;6.536;2023-04-19T05:39:34;8.65;;;5.25;;
61015;SDS011;46902;52.920;6.536;2023-04-19T05:42:00;10.40;;;5.20;;
61015;SDS011;46902;52.920;6.536;2023-04-19T05:44:25;11.02;;;5.20;;
61015;SDS011;46902;52.920;6.536;2023-04-19T05:46:51;7.03;;;4.72;;
61015;SDS011;46902;52.920;6.536;2023-04-19T05:49:17;10.35;;;5.10;;
61015;SDS011;46902;52.920;6.536;2023-04-19T05:51:42;10.27;;;4.75;;
61015;SDS011;46902;52.920;6.536;2023-04-19T05:54:08;9.18;;;4.85;;
61015;SDS011;46902;52.920;6.536;2023-04-19T05:56:36;7.07;;;4.32;;
61015;SDS011;46902;52.920;6.536;2023-04-19T05:59:02;8.85;;;4.85;;
61015;SDS011;46902;52.920;6.536;2023-04-19T06:01:28;7.32;;;4.43;;
61015;SDS011;46902;52.920;6.536;2023-04-19T06:03:54;6.70;;;3.88;;
61015;SDS011;46902;52.920;6.536;2023-04-19T06:06:23;8.80;;;4.43;;
61015;SDS011;46902;52.920;6.536;2023-04-19T06:08:48;7.95;;;4.10;;
61015;SDS011;46902;52.920;6.536;2023-04-19T06:11:14;6.38;;;4.50;;
61015;SDS011;46902;52.920;6.536;2023-04-19T06:13:40;6.18;;;3.92;;
61015;SDS011;46902;52.920;6.536;2023-04-19T06:16:07;7.65;;;3.60;;
61015;SDS011;46902;52.920;6.536;2023-04-19T06:18:33;10.80;;;4.18;;
61015;SDS011;46902;52.920;6.536;2023-04-19T06:20:58;8.95;;;4.38;;
61015;SDS011;46902;52.920;6.536;2023-04-19T06:23:24;6.03;;;3.45;;
61015;SDS011;46902;52.920;6.536;2023-04-19T06:25:51;9.25;;;3.67;;
61015;SDS011;46902;52.920;6.536;2023-04-19T06:28:16;7.30;;;3.72;;
61015;SDS011;46902;52.920;6.536;2023-04-19T06:30:42;9.68;;;3.63;;
61015;SDS011;46902;52.920;6.536;2023-04-19T06:33:08;6.72;;;3.47;;
61015;SDS011;46902;52.920;6.536;2023-04-19T06:35:33;7.13;;;4.00;;
61015;SDS011;46902;52.920;6.536;2023-04-19T06:37:59;6.90;;;3.47;;
61015;SDS011;46902;52.920;6.536;2023-04-19T06:40:25;6.35;;;3.45;;
61015;SDS011;46902;52.920;6.536;2023-04-19T06:42:52;6.53;;;3.25;;
61015;SDS011;46902;52.920;6.536;2023-04-19T06:45:18;7.22;;;3.40;;
61015;SDS011;46902;52.920;6.536;2023-04-19T06:47:44;5.82;;;3.35;;
61015;SDS011;46902;52.920;6.536;2023-04-19T06:50:09;7.18;;;3.38;;
61015;SDS011;46902;52.920;6.536;2023-04-19T06:52:35;5.70;;;3.20;;
61015;SDS011;46902;52.920;6.536;2023-04-19T06:55:01;7.22;;;3.30;;
61015;SDS011;46902;52.920;6.536;2023-04-19T06:57:27;5.72;;;3.22;;
61015;SDS011;46902;52.920;6.536;2023-04-19T06:59:53;5.32;;;3.05;;
61015;SDS011;46902;52.920;6.536;2023-04-19T07:02:19;6.05;;;2.75;;
61015;SDS011;46902;52.920;6.536;2023-04-19T07:04:45;6.07;;;2.60;;
61015;SDS011;46902;52.920;6.536;2023-04-19T07:07:12;4.50;;;2.47;;
61015;SDS011;46902;52.920;6.536;2023-04-19T07:09:37;4.13;;;2.55;;
61015;SDS011;46902;52.920;6.536;2023-04-19T07:12:05;4.65;;;2.90;;
61015;SDS011;46902;52.920;6.536;2023-04-19T07:14:30;5.00;;;2.42;;
61015;SDS011;46902;52.920;6.536;2023-04-19T07:16:56;3.63;;;2.13;;
61015;SDS011;46902;52.920;6.536;2023-04-19T07:19:22;5.63;;;2.20;;
61015;SDS011;46902;52.920;6.536;2023-04-19T07:21:47;6.13;;;2.03;;
61015;SDS011;46902;52.920;6.536;2023-04-19T07:24:13;3.22;;;1.83;;
61015;SDS011;46902;52.920;6.536;2023-04-19T07:26:40;6.93;;;2.50;;
61015;SDS011;46902;52.920;6.536;2023-04-19T07:29:06;4.55;;;1.83;;
61015;SDS011;46902;52.920;6.536;2023-04-19T07:31:32;4.95;;;2.05;;
61015;SDS011;46902;52.920;6.536;2023-04-19T07:33:57;3.08;;;1.80;;
61015;SDS011;46902;52.920;6.536;2023-04-19T07:36:23;3.97;;;2.13;;
61015;SDS011;46902;52.920;6.536;2023-04-19T07:38:48;5.18;;;2.58;;
61015;SDS011;46902;52.920;6.536;2023-04-19T07:41:14;3.13;;;1.75;;
61015;SDS011;46902;52.920;6.536;2023-04-19T07:43:40;3.78;;;2.00;;
61015;SDS011;46902;52.920;6.536;2023-04-19T07:46:09;5.25;;;2.15;;
61015;SDS011;46902;52.920;6.536;2023-04-19T07:48:36;4.30;;;2.15;;
61015;SDS011;46902;52.920;6.536;2023-04-19T07:51:12;7.40;;;2.42;;
61015;SDS011;46902;52.920;6.536;2023-04-19T07:53:39;3.78;;;2.13;;
61015;SDS011;46902;52.920;6.536;2023-04-19T07:56:06;4.15;;;1.73;;
61015;SDS011;46902;52.920;6.536;2023-04-19T07:58:32;6.15;;;1.60;;
61015;SDS011;46902;52.920;6.536;2023-04-19T08:00:58;4.50;;;1.80;;
61015;SDS011;46902;52.920;6.536;2023-04-19T08:03:23;4.43;;;1.90;;
61015;SDS011;46902;52.920;6.536;2023-04-19T08:05:49;7.30;;;2.17;;
61015;SDS011;46902;52.920;6.536;2023-04-19T08:08:15;4.53;;;2.40;;
61015;SDS011;46902;52.920;6.536;2023-04-19T08:10:41;3.85;;;1.90;;
61015;SDS011;46902;52.920;6.536;2023-04-19T08:13:07;4.30;;;2.13;;
61015;SDS011;46902;52.920;6.536;2023-04-19T08:15:33;5.93;;;2.10;;
61015;SDS011;46902;52.920;6.536;2023-04-19T08:17:59;4.93;;;1.92;;
61015;SDS011;46902;52.920;6.536;2023-04-19T08:20:26;5.53;;;2.00;;
61015;SDS011;46902;52.920;6.536;2023-04-19T08:22:52;5.20;;;2.00;;
61015;SDS011;46902;52.920;6.536;2023-04-19T08:25:18;5.85;;;2.22;;
61015;SDS011;46902;52.920;6.536;2023-04-19T08:27:43;4.50;;;2.30;;
61015;SDS011;46902;52.920;6.536;2023-04-19T08:30:09;5.90;;;2.38;;
61015;SDS011;46902;52.920;6.536;2023-04-19T08:32:35;5.70;;;2.20;;
61015;SDS011;46902;52.920;6.536;2023-04-19T08:35:01;4.72;;;2.45;;
61015;SDS011;46902;52.920;6.536;2023-04-19T08:37:28;5.13;;;2.08;;
61015;SDS011;46902;52.920;6.536;2023-04-19T08:39:53;3.78;;;2.30;;
61015;SDS011;46902;52.920;6.536;2023-04-19T08:42:19;4.93;;;1.98;;
61015;SDS011;46902;52.920;6.536;2023-04-19T08:44:45;4.93;;;1.90;;
61015;SDS011;46902;52.920;6.536;2023-04-19T08:47:12;4.88;;;2.25;;
61015;SDS011;46902;52.920;6.536;2023-04-19T08:49:40;3.38;;;1.90;;
61015;SDS011;46902;52.920;6.536;2023-04-19T08:52:09;3.85;;;1.80;;
61015;SDS011;46902;52.920;6.536;2023-04-19T08:54:37;6.65;;;2.05;;
61015;SDS011;46902;52.920;6.536;2023-04-19T08:57:03;4.65;;;1.90;;
61015;SDS011;46902;52.920;6.536;2023-04-19T08:59:30;4.63;;;1.77;;
61015;SDS011;46902;52.920;6.536;2023-04-19T09:01:59;3.15;;;1.80;;
61015;SDS011;46902;52.920;6.536;2023-04-19T09:04:27;3.78;;;1.77;;
61015;SDS011;46902;52.920;6.536;2023-04-19T09:06:53;3.83;;;1.67;;
61015;SDS011;46902;52.920;6.536;2023-04-19T09:09:21;4.45;;;2.10;;
61015;SDS011;46902;52.920;6.536;2023-04-19T09:11:51;2.78;;;1.52;;
61015;SDS011;46902;52.920;6.536;2023-04-19T09:14:18;4.07;;;1.50;;
61015;SDS011;46902;52.920;6.536;2023-04-19T09:16:45;7.75;;;1.80;;
61015;SDS011;46902;52.920;6.536;2023-04-19T09:19:11;4.75;;;1.63;;
61015;SDS011;46902;52.920;6.536;2023-04-19T09:21:37;4.32;;;1.35;;
61015;SDS011;46902;52.920;6.536;2023-04-19T09:24:03;3.25;;;1.40;;
61015;SDS011;46902;52.920;6.536;2023-04-19T09:26:30;3.40;;;1.80;;
61015;SDS011;46902;52.920;6.536;2023-04-19T09:29:00;4.70;;;1.40;;
61015;SDS011;46902;52.920;6.536;2023-04-19T09:31:30;6.32;;;2.10;;
61015;SDS011;46902;52.920;6.536;2023-04-19T09:33:57;4.18;;;1.75;;
61015;SDS011;46902;52.920;6.536;2023-04-19T09:36:35;3.95;;;1.55;;
61015;SDS011;46902;52.920;6.536;2023-04-19T09:39:01;5.45;;;1.50;;
61015;SDS011;46902;52.920;6.536;2023-04-19T09:41:27;3.95;;;1.52;;
61015;SDS011;46902;52.920;6.536;2023-04-19T09:43:52;2.63;;;1.60;;
61015;SDS011;46902;52.920;6.536;2023-04-19T09:46:32;2.90;;;1.80;;
61015;SDS011;46902;52.920;6.536;2023-04-19T09:51:44;4.68;;;1.40;;
61015;SDS011;46902;52.920;6.536;2023-04-19T09:54:11;3.28;;;1.30;;
61015;SDS011;46902;52.920;6.536;2023-04-19T09:56:38;6.18;;;1.40;;
61015;SDS011;46902;52.920;6.536;2023-04-19T09:59:05;2.53;;;1.25;;
61015;SDS011;46902;52.920;6.536;2023-04-19T10:01:37;3.63;;;1.35;;
61015;SDS011;46902;52.920;6.536;2023-04-19T10:04:10;7.53;;;1.70;;
61015;SDS011;46902;52.920;6.536;2023-04-19T10:06:38;2.75;;;1.20;;
61015;SDS011;46902;52.920;6.536;2023-04-19T10:09:05;5.32;;;1.10;;
61015;SDS011;46902;52.920;6.536;2023-04-19T10:11:36;7.07;;;1.40;;
61015;SDS011;46902;52.920;6.536;2023-04-19T10:14:05;2.58;;;1.45;;
61015;SDS011;46902;52.920;6.536;2023-04-19T10:16:33;3.85;;;1.30;;
61015;SDS011;46902;52.920;6.536;2023-04-19T10:19:00;2.17;;;1.30;;
61015;SDS011;46902;52.920;6.536;2023-04-19T10:21:27;3.72;;;1.33;;
61015;SDS011;46902;52.920;6.536;2023-04-19T10:23:54;4.65;;;1.60;;
61015;SDS011;46902;52.920;6.536;2023-04-19T10:26:21;5.63;;;1.20;;
61015;SDS011;46902;52.920;6.536;2023-04-19T10:28:46;2.90;;;1.63;;
61015;SDS011;46902;52.920;6.536;2023-04-19T10:31:13;2.67;;;1.10;;
61015;SDS011;46902;52.920;6.536;2023-04-19T10:33:39;3.25;;;1.20;;
61015;SDS011;46902;52.920;6.536;2023-04-19T10:36:09;3.63;;;1.10;;
61015;SDS011;46902;52.920;6.536;2023-04-19T10:41:03;3.63;;;1.00;;
61015;SDS011;46902;52.920;6.536;2023-04-19T10:43:35;5.00;;;1.20;;
61015;SDS011;46902;52.920;6.536;2023-04-19T10:46:12;3.53;;;1.10;;
61015;SDS011;46902;52.920;6.536;2023-04-19T10:48:42;2.17;;;1.38;;
61015;SDS011;46902;52.920;6.536;2023-04-19T10:51:17;2.20;;;0.90;;
61015;SDS011;46902;52.920;6.536;2023-04-19T11:04:03;1.67;;;1.00;;
61015;SDS011;46902;52.920;6.536;2023-04-19T11:06:29;2.95;;;1.00;;
61015;SDS011;46902;52.920;6.536;2023-04-19T11:08:56;2.78;;;1.10;;
61015;SDS011;46902;52.920;6.536;2023-04-19T11:11:21;3.72;;;1.00;;
61015;SDS011;46902;52.920;6.536;2023-04-19T11:13:49;2.88;;;1.00;;
61015;SDS011;46902;52.920;6.536;2023-04-19T11:16:15;2.28;;;0.90;;
61015;SDS011;46902;52.920;6.536;2023-04-19T11:18:40;2.33;;;0.73;;
61015;SDS011;46902;52.920;6.536;2023-04-19T11:21:11;2.65;;;0.95;;
61015;SDS011;46902;52.920;6.536;2023-04-19T11:23:38;4.63;;;1.00;;
61015;SDS011;46902;52.920;6.536;2023-04-19T11:26:03;2.95;;;0.80;;
61015;SDS011;46902;52.920;6.536;2023-04-19T11:28:31;1.80;;;0.80;;
61015;SDS011;46902;52.920;6.536;2023-04-19T11:30:57;6.18;;;0.90;;
61015;SDS011;46902;52.920;6.536;2023-04-19T11:33:23;1.60;;;0.88;;
61015;SDS011;46902;52.920;6.536;2023-04-19T11:35:51;3.90;;;1.40;;
61015;SDS011;46902;52.920;6.536;2023-04-19T11:38:16;3.47;;;0.90;;
61015;SDS011;46902;52.920;6.536;2023-04-19T11:40:42;3.25;;;1.02;;
61015;SDS011;46902;52.920;6.536;2023-04-19T11:43:08;4.28;;;1.27;;
61015;SDS011;46902;52.920;6.536;2023-04-19T11:45:34;2.72;;;1.35;;
61015;SDS011;46902;52.920;6.536;2023-04-19T11:48:01;2.20;;;1.40;;
61015;SDS011;46902;52.920;6.536;2023-04-19T11:52:55;3.00;;;1.08;;
61015;SDS011;46902;52.920;6.536;2023-04-19T11:55:22;5.18;;;1.42;;
61015;SDS011;46902;52.920;6.536;2023-04-19T11:57:47;2.28;;;1.05;;
61015;SDS011;46902;52.920;6.536;2023-04-19T12:00:14;3.63;;;1.60;;
61015;SDS011;46902;52.920;6.536;2023-04-19T12:02:43;4.28;;;1.60;;
61015;SDS011;46902;52.920;6.536;2023-04-19T12:05:11;4.88;;;1.42;;
61015;SDS011;46902;52.920;6.536;2023-04-19T12:10:31;3.17;;;1.63;;
61015;SDS011;46902;52.920;6.536;2023-04-19T12:12:57;1.75;;;1.27;;
61015;SDS011;46902;52.920;6.536;2023-04-19T12:15:23;6.47;;;1.75;;
61015;SDS011;46902;52.920;6.536;2023-04-19T12:18:05;3.50;;;1.70;;
61015;SDS011;46902;52.920;6.536;2023-04-19T12:20:32;4.18;;;1.60;;
61015;SDS011;46902;52.920;6.536;2023-04-19T12:23:01;3.05;;;1.77;;
61015;SDS011;46902;52.920;6.536;2023-04-19T12:25:30;4.28;;;2.08;;
61015;SDS011;46902;52.920;6.536;2023-04-19T12:27:58;3.65;;;1.73;;
61015;SDS011;46902;52.920;6.536;2023-04-19T12:30:24;3.22;;;1.80;;
61015;SDS011;46902;52.920;6.536;2023-04-19T12:32:51;5.35;;;1.88;;
61015;SDS011;46902;52.920;6.536;2023-04-19T12:35:19;3.22;;;1.80;;
61015;SDS011;46902;52.920;6.536;2023-04-19T12:37:46;3.50;;;2.10;;
61015;SDS011;46902;52.920;6.536;2023-04-19T12:40:12;3.42;;;1.65;;
61015;SDS011;46902;52.920;6.536;2023-04-19T12:42:38;3.65;;;1.88;;
61015;SDS011;46902;52.920;6.536;2023-04-19T12:45:04;5.13;;;2.13;;
61015;SDS011;46902;52.920;6.536;2023-04-19T12:47:30;6.68;;;2.00;;
61015;SDS011;46902;52.920;6.536;2023-04-19T12:49:55;5.20;;;2.03;;
61015;SDS011;46902;52.920;6.536;2023-04-19T12:52:21;6.20;;;2.05;;
61015;SDS011;46902;52.920;6.536;2023-04-19T12:54:47;3.63;;;1.90;;
61015;SDS011;46902;52.920;6.536;2023-04-19T12:57:13;3.50;;;1.90;;
61015;SDS011;46902;52.920;6.536;2023-04-19T12:59:40;3.63;;;1.95;;
61015;SDS011;46902;52.920;6.536;2023-04-19T13:02:06;2.95;;;1.98;;
61015;SDS011;46902;52.920;6.536;2023-04-19T13:04:31;3.95;;;1.90;;
61015;SDS011;46902;52.920;6.536;2023-04-19T13:06:57;5.03;;;1.85;;
61015;SDS011;46902;52.920;6.536;2023-04-19T13:09:23;4.88;;;2.00;;
61015;SDS011;46902;52.920;6.536;2023-04-19T13:11:48;3.60;;;2.08;;
61015;SDS011;46902;52.920;6.536;2023-04-19T13:14:14;5.70;;;2.30;;
61015;SDS011;46902;52.920;6.536;2023-04-19T13:16:40;4.35;;;1.77;;
61015;SDS011;46902;52.920;6.536;2023-04-19T13:19:06;4.38;;;1.58;;
61015;SDS011;46902;52.920;6.536;2023-04-19T13:21:31;4.38;;;1.85;;
61015;SDS011;46902;52.920;6.536;2023-04-19T13:23:57;6.25;;;1.75;;
61015;SDS011;46902;52.920;6.536;2023-04-19T13:26:23;5.38;;;1.70;;
61015;SDS011;46902;52.920;6.536;2023-04-19T13:28:49;4.15;;;1.92;;
61015;SDS011;46902;52.920;6.536;2023-04-19T13:31:14;9.38;;;1.80;;
61015;SDS011;46902;52.920;6.536;2023-04-19T13:33:40;5.45;;;2.15;;
61015;SDS011;46902;52.920;6.536;2023-04-19T13:36:06;5.22;;;2.30;;
61015;SDS011;46902;52.920;6.536;2023-04-19T13:38:31;9.65;;;1.80;;
61015;SDS011;46902;52.920;6.536;2023-04-19T13:40:57;4.80;;;1.70;;
61015;SDS011;46902;52.920;6.536;2023-04-19T13:43:23;5.07;;;1.58;;
61015;SDS011;46902;52.920;6.536;2023-04-19T13:45:49;7.07;;;1.58;;
61015;SDS011;46902;52.920;6.536;2023-04-19T13:48:15;4.95;;;1.70;;
61015;SDS011;46902;52.920;6.536;2023-04-19T13:50:40;5.30;;;1.77;;
61015;SDS011;46902;52.920;6.536;2023-04-19T13:53:06;3.60;;;1.85;;
61015;SDS011;46902;52.920;6.536;2023-04-19T13:55:32;10.18;;;1.88;;
61015;SDS011;46902;52.920;6.536;2023-04-19T13:57:57;5.80;;;1.85;;
61015;SDS011;46902;52.920;6.536;2023-04-19T14:00:23;5.90;;;1.63;;
61015;SDS011;46902;52.920;6.536;2023-04-19T14:02:49;5.07;;;1.70;;
61015;SDS011;46902;52.920;6.536;2023-04-19T14:05:15;4.18;;;1.90;;
61015;SDS011;46902;52.920;6.536;2023-04-19T14:07:40;5.65;;;1.77;;
61015;SDS011;46902;52.920;6.536;2023-04-19T14:10:07;5.07;;;1.92;;
61015;SDS011;46902;52.920;6.536;2023-04-19T14:12:33;5.03;;;1.90;;
61015;SDS011;46902;52.920;6.536;2023-04-19T14:14:59;4.43;;;1.90;;
61015;SDS011;46902;52.920;6.536;2023-04-19T14:17:25;5.53;;;1.85;;
61015;SDS011;46902;52.920;6.536;2023-04-19T14:19:50;4.88;;;1.67;;
61015;SDS011;46902;52.920;6.536;2023-04-19T14:22:16;4.68;;;2.13;;
61015;SDS011;46902;52.920;6.536;2023-04-19T14:24:42;4.82;;;1.90;;
61015;SDS011;46902;52.920;6.536;2023-04-19T14:27:07;5.75;;;1.75;;
61015;SDS011;46902;52.920;6.536;2023-04-19T14:29:33;3.67;;;1.60;;
61015;SDS011;46902;52.920;6.536;2023-04-19T14:31:59;4.72;;;1.63;;
61015;SDS011;46902;52.920;6.536;2023-04-19T14:34:25;4.60;;;1.90;;
61015;SDS011;46902;52.920;6.536;2023-04-19T14:36:51;5.45;;;1.92;;
61015;SDS011;46902;52.920;6.536;2023-04-19T14:39:16;3.67;;;2.10;;
61015;SDS011;46902;52.920;6.536;2023-04-19T14:41:42;5.72;;;1.90;;
61015;SDS011;46902;52.920;6.536;2023-04-19T14:44:07;4.38;;;1.92;;
61015;SDS011;46902;52.920;6.536;2023-04-19T14:46:33;4.38;;;1.75;;
61015;SDS011;46902;52.920;6.536;2023-04-19T14:48:59;8.05;;;2.08;;
61015;SDS011;46902;52.920;6.536;2023-04-19T14:51:28;4.43;;;1.95;;
61015;SDS011;46902;52.920;6.536;2023-04-19T14:53:54;4.20;;;1.80;;
61015;SDS011;46902;52.920;6.536;2023-04-19T14:56:19;4.82;;;1.90;;
61015;SDS011;46902;52.920;6.536;2023-04-19T14:58:45;5.80;;;1.80;;
61015;SDS011;46902;52.920;6.536;2023-04-19T15:01:11;7.72;;;2.03;;